sensor_id;sensor_type;location;lat;lon;timestamp;P1;durP1;ratioP1;P2;durP2;ratioP2
4508;SDS011;2267;48.816;9.230;2023-06-22T00:01:45;9.93;;;9.13;;
4508;SDS011;2267;48.816;9.230;2023-06-22T00:04:12;9.07;;;8.27;;
4508;SDS011;2267;48.816;9.230;2023-06-22T00:06:39;10.27;;;8.63;;
4508;SDS011;2267;48.816;9.230;2023-06-22T00:09:06;10.63;;;9.43;;
4508;SDS011;2267;48.816;9.230;2023-06-22T00:11:33;9.33;;;8.47;;
4508;SDS011;2267;48.816;9.230;2023-06-22T00:14:00;9.60;;;8.80;;
4508;SDS011;2267;48.816;9.230;2023-06-22T00:16:27;9.80;;;9.00;;
4508;SDS011;2267;48.816;9.230;2023-06-22T00:18:54;9.03;;;8.33;;
4508;SDS011;2267;48.816;9.230;2023-06-22T00:21:21;9.50;;;8.10;;
4508;SDS011;2267;48.816;9.230;2023-06-22T00:23:48;9.30;;;8.50;;
4508;SDS011;2267;48.816;9.230;2023-06-22T00:26:14;9.57;;;8.67;;
4508;SDS011;2267;48.816;9.230;2023-06-22T00:28:41;14.90;;;9.63;;
4508;SDS011;2267;48.816;9.230;2023-06-22T00:31:08;9.70;;;8.80;;
4508;SDS011;2267;48.816;9.230;2023-06-22T00:33:35;10.67;;;9.10;;
4508;SDS011;2267;48.816;9.230;2023-06-22T00:36:02;9.97;;;9.17;;
4508;SDS011;2267;48.816;9.230;2023-06-22T00:38:30;12.00;;;9.07;;
4508;SDS011;2267;48.816;9.230;2023-06-22T00:40:57;9.77;;;8.90;;
4508;SDS011;2267;48.816;9.230;2023-06-22T00:43:24;9.77;;;8.77;;
4508;SDS011;2267;48.816;9.230;2023-06-22T00:45:51;10.10;;;9.03;;
4508;SDS011;2267;48.816;9.230;2023-06-22T00:48:18;9.00;;;8.10;;
4508;SDS011;2267;48.816;9.230;2023-06-22T00:50:45;10.53;;;9.63;;
4508;SDS011;2267;48.816;9.230;2023-06-22T00:53:15;10.00;;;9.10;;
4508;SDS011;2267;48.816;9.230;2023-06-22T00:55:44;9.77;;;8.87;;
4508;SDS011;2267;48.816;9.230;2023-06-22T00:58:13;9.73;;;8.80;;
4508;SDS011;2267;48.816;9.230;2023-06-22T01:00:40;10.77;;;9.70;;
4508;SDS011;2267;48.816;9.230;2023-06-22T01:03:07;11.00;;;9.90;;
4508;SDS011;2267;48.816;9.230;2023-06-22T01:05:36;9.43;;;8.63;;
4508;SDS011;2267;48.816;9.230;2023-06-22T01:13:40;10.43;;;9.40;;
4508;SDS011;2267;48.816;9.230;2023-06-22T01:16:35;10.60;;;9.67;;
4508;SDS011;2267;48.816;9.230;2023-06-22T01:19:52;9.80;;;8.97;;
4508;SDS011;2267;48.816;9.230;2023-06-22T01:21:53;11.00;;;10.00;;
4508;SDS011;2267;48.816;9.230;2023-06-22T01:24:23;11.13;;;10.07;;
4508;SDS011;2267;48.816;9.230;2023-06-22T01:29:52;11.50;;;10.40;;
4508;SDS011;2267;48.816;9.230;2023-06-22T01:32:28;11.97;;;10.07;;
4508;SDS011;2267;48.816;9.230;2023-06-22T01:34:59;10.63;;;9.73;;
4508;SDS011;2267;48.816;9.230;2023-06-22T01:37:27;10.90;;;9.97;;
4508;SDS011;2267;48.816;9.230;2023-06-22T01:39:55;11.53;;;9.10;;
4508;SDS011;2267;48.816;9.230;2023-06-22T01:42:23;10.93;;;9.97;;
4508;SDS011;2267;48.816;9.230;2023-06-22T01:44:54;12.23;;;10.87;;
4508;SDS011;2267;48.816;9.230;2023-06-22T01:47:23;10.80;;;9.90;;
4508;SDS011;2267;48.816;9.230;2023-06-22T01:49:50;11.47;;;10.30;;
4508;SDS011;2267;48.816;9.230;2023-06-22T01:52:18;10.60;;;9.60;;
4508;SDS011;2267;48.816;9.230;2023-06-22T01:54:47;10.57;;;9.67;;
4508;SDS011;2267;48.816;9.230;2023-06-22T01:57:14;10.33;;;9.43;;
4508;SDS011;2267;48.816;9.230;2023-06-22T01:59:49;10.57;;;9.77;;
4508;SDS011;2267;48.816;9.230;2023-06-22T02:05:18;10.07;;;9.20;;
4508;SDS011;2267;48.816;9.230;2023-06-22T02:07:52;10.20;;;9.40;;
4508;SDS011;2267;48.816;9.230;2023-06-22T02:10:44;10.93;;;9.93;;
4508;SDS011;2267;48.816;9.230;2023-06-22T02:13:12;10.00;;;9.00;;
4508;SDS011;2267;48.816;9.230;2023-06-22T02:15:40;10.60;;;9.60;;
4508;SDS011;2267;48.816;9.230;2023-06-22T02:18:08;11.90;;;10.80;;
4508;SDS011;2267;48.816;9.230;2023-06-22T02:20:38;10.10;;;9.20;;
4508;SDS011;2267;48.816;9.230;2023-06-22T02:23:06;12.77;;;10.20;;
4508;SDS011;2267;48.816;9.230;2023-06-22T02:25:33;10.60;;;9.70;;
4508;SDS011;2267;48.816;9.230;2023-06-22T02:28:01;10.43;;;9.43;;
4508;SDS011;2267;48.816;9.230;2023-06-22T02:30:28;10.50;;;9.50;;
4508;SDS011;2267;48.816;9.230;2023-06-22T02:32:56;12.00;;;9.43;;
4508;SDS011;2267;48.816;9.230;2023-06-22T02:35:26;10.80;;;9.80;;
4508;SDS011;2267;48.816;9.230;2023-06-22T02:37:58;10.87;;;9.93;;
4508;SDS011;2267;48.816;9.230;2023-06-22T02:40:27;10.27;;;9.13;;
4508;SDS011;2267;48.816;9.230;2023-06-22T02:42:56;10.70;;;9.60;;
4508;SDS011;2267;48.816;9.230;2023-06-22T02:45:27;12.67;;;11.40;;
4508;SDS011;2267;48.816;9.230;2023-06-22T02:47:55;11.80;;;10.23;;
4508;SDS011;2267;48.816;9.230;2023-06-22T02:50:22;10.83;;;9.70;;
4508;SDS011;2267;48.816;9.230;2023-06-22T02:52:49;10.90;;;9.80;;
4508;SDS011;2267;48.816;9.230;2023-06-22T02:55:16;10.80;;;9.90;;
4508;SDS011;2267;48.816;9.230;2023-06-22T02:57:43;11.00;;;9.80;;
4508;SDS011;2267;48.816;9.230;2023-06-22T03:00:10;10.90;;;9.33;;
4508;SDS011;2267;48.816;9.230;2023-06-22T03:02:43;10.70;;;9.63;;
4508;SDS011;2267;48.816;9.230;2023-06-22T03:05:11;12.13;;;8.97;;
4508;SDS011;2267;48.816;9.230;2023-06-22T03:07:40;10.70;;;9.70;;
4508;SDS011;2267;48.816;9.230;2023-06-22T03:10:08;10.10;;;9.20;;
4508;SDS011;2267;48.816;9.230;2023-06-22T03:12:39;11.57;;;10.37;;
4508;SDS011;2267;48.816;9.230;2023-06-22T03:15:07;10.97;;;9.90;;
4508;SDS011;2267;48.816;9.230;2023-06-22T03:17:37;11.70;;;10.33;;
4508;SDS011;2267;48.816;9.230;2023-06-22T03:20:05;12.17;;;10.80;;
4508;SDS011;2267;48.816;9.230;2023-06-22T03:22:35;11.00;;;10.00;;
4508;SDS011;2267;48.816;9.230;2023-06-22T03:25:03;11.60;;;10.10;;
4508;SDS011;2267;48.816;9.230;2023-06-22T03:27:30;11.83;;;10.20;;
4508;SDS011;2267;48.816;9.230;2023-06-22T03:29:57;10.90;;;9.90;;
4508;SDS011;2267;48.816;9.230;2023-06-22T03:32:24;11.00;;;9.90;;
4508;SDS011;2267;48.816;9.230;2023-06-22T03:34:54;12.63;;;10.13;;
4508;SDS011;2267;48.816;9.230;2023-06-22T03:37:25;11.10;;;10.03;;
4508;SDS011;2267;48.816;9.230;2023-06-22T03:39:52;11.50;;;10.40;;
4508;SDS011;2267;48.816;9.230;2023-06-22T03:42:19;10.77;;;9.83;;
4508;SDS011;2267;48.816;9.230;2023-06-22T03:44:46;11.30;;;10.20;;
4508;SDS011;2267;48.816;9.230;2023-06-22T03:47:13;10.93;;;9.83;;
4508;SDS011;2267;48.816;9.230;2023-06-22T03:49:40;11.90;;;10.70;;
4508;SDS011;2267;48.816;9.230;2023-06-22T03:52:07;10.67;;;9.67;;
4508;SDS011;2267;48.816;9.230;2023-06-22T03:54:34;13.30;;;11.23;;
4508;SDS011;2267;48.816;9.230;2023-06-22T03:57:01;10.30;;;9.30;;
4508;SDS011;2267;48.816;9.230;2023-06-22T03:59:28;10.03;;;9.10;;
4508;SDS011;2267;48.816;9.230;2023-06-22T04:01:54;15.10;;;10.40;;
4508;SDS011;2267;48.816;9.230;2023-06-22T04:04:21;12.73;;;11.63;;
4508;SDS011;2267;48.816;9.230;2023-06-22T04:06:48;10.80;;;9.83;;
4508;SDS011;2267;48.816;9.230;2023-06-22T04:09:15;10.53;;;9.57;;
4508;SDS011;2267;48.816;9.230;2023-06-22T04:11:42;10.63;;;9.73;;
4508;SDS011;2267;48.816;9.230;2023-06-22T04:14:09;10.73;;;9.73;;
4508;SDS011;2267;48.816;9.230;2023-06-22T04:16:35;12.87;;;11.73;;
4508;SDS011;2267;48.816;9.230;2023-06-22T04:19:02;12.93;;;10.87;;
4508;SDS011;2267;48.816;9.230;2023-06-22T04:21:29;11.30;;;10.50;;
4508;SDS011;2267;48.816;9.230;2023-06-22T04:23:56;12.30;;;10.30;;
4508;SDS011;2267;48.816;9.230;2023-06-22T04:26:23;12.13;;;10.90;;
4508;SDS011;2267;48.816;9.230;2023-06-22T04:28:50;14.50;;;11.00;;
4508;SDS011;2267;48.816;9.230;2023-06-22T04:31:18;10.83;;;10.00;;
4508;SDS011;2267;48.816;9.230;2023-06-22T04:33:47;9.80;;;8.77;;
4508;SDS011;2267;48.816;9.230;2023-06-22T04:36:14;12.30;;;10.40;;
4508;SDS011;2267;48.816;9.230;2023-06-22T04:38:41;11.83;;;10.67;;
4508;SDS011;2267;48.816;9.230;2023-06-22T04:41:08;12.20;;;11.00;;
4508;SDS011;2267;48.816;9.230;2023-06-22T04:43:50;12.13;;;11.10;;
4508;SDS011;2267;48.816;9.230;2023-06-22T04:46:20;11.60;;;10.60;;
4508;SDS011;2267;48.816;9.230;2023-06-22T04:48:47;11.50;;;10.30;;
4508;SDS011;2267;48.816;9.230;2023-06-22T04:51:14;12.50;;;11.17;;
4508;SDS011;2267;48.816;9.230;2023-06-22T04:53:40;11.93;;;10.73;;
4508;SDS011;2267;48.816;9.230;2023-06-22T04:56:09;12.90;;;11.57;;
4508;SDS011;2267;48.816;9.230;2023-06-22T04:58:35;12.27;;;11.10;;
4508;SDS011;2267;48.816;9.230;2023-06-22T05:01:02;12.70;;;10.73;;
4508;SDS011;2267;48.816;9.230;2023-06-22T05:03:29;11.93;;;10.93;;
4508;SDS011;2267;48.816;9.230;2023-06-22T05:05:57;14.30;;;10.70;;
4508;SDS011;2267;48.816;9.230;2023-06-22T05:08:23;11.93;;;10.93;;
4508;SDS011;2267;48.816;9.230;2023-06-22T05:10:53;14.10;;;11.50;;
4508;SDS011;2267;48.816;9.230;2023-06-22T05:13:31;12.50;;;11.30;;
4508;SDS011;2267;48.816;9.230;2023-06-22T05:15:58;11.50;;;10.50;;
4508;SDS011;2267;48.816;9.230;2023-06-22T05:18:28;11.27;;;10.20;;
4508;SDS011;2267;48.816;9.230;2023-06-22T05:20:57;16.77;;;10.70;;
4508;SDS011;2267;48.816;9.230;2023-06-22T05:23:25;13.87;;;12.17;;
4508;SDS011;2267;48.816;9.230;2023-06-22T05:25:52;12.37;;;10.70;;
4508;SDS011;2267;48.816;9.230;2023-06-22T05:28:20;10.83;;;9.80;;
4508;SDS011;2267;48.816;9.230;2023-06-22T05:30:49;10.70;;;9.70;;
4508;SDS011;2267;48.816;9.230;2023-06-22T05:33:17;11.63;;;9.60;;
4508;SDS011;2267;48.816;9.230;2023-06-22T05:35:43;11.40;;;9.93;;
4508;SDS011;2267;48.816;9.230;2023-06-22T05:38:10;11.20;;;10.10;;
4508;SDS011;2267;48.816;9.230;2023-06-22T05:40:37;10.70;;;9.70;;
4508;SDS011;2267;48.816;9.230;2023-06-22T05:43:04;11.00;;;10.00;;
4508;SDS011;2267;48.816;9.230;2023-06-22T05:45:31;15.23;;;9.40;;
4508;SDS011;2267;48.816;9.230;2023-06-22T05:47:58;9.43;;;8.60;;
4508;SDS011;2267;48.816;9.230;2023-06-22T05:50:24;10.00;;;9.10;;
4508;SDS011;2267;48.816;9.230;2023-06-22T05:52:51;9.80;;;8.90;;
4508;SDS011;2267;48.816;9.230;2023-06-22T05:55:18;10.07;;;9.13;;
4508;SDS011;2267;48.816;9.230;2023-06-22T05:57:45;9.27;;;8.37;;
4508;SDS011;2267;48.816;9.230;2023-06-22T06:00:12;9.30;;;8.00;;
4508;SDS011;2267;48.816;9.230;2023-06-22T06:02:39;9.20;;;8.30;;
4508;SDS011;2267;48.816;9.230;2023-06-22T06:05:11;10.20;;;9.23;;
4508;SDS011;2267;48.816;9.230;2023-06-22T06:07:43;10.17;;;9.17;;
4508;SDS011;2267;48.816;9.230;2023-06-22T06:10:11;7.40;;;6.70;;
4508;SDS011;2267;48.816;9.230;2023-06-22T06:12:38;9.00;;;8.10;;
4508;SDS011;2267;48.816;9.230;2023-06-22T06:15:05;8.50;;;7.60;;
4508;SDS011;2267;48.816;9.230;2023-06-22T06:17:37;7.10;;;6.40;;
4508;SDS011;2267;48.816;9.230;2023-06-22T06:20:11;7.83;;;7.03;;
4508;SDS011;2267;48.816;9.230;2023-06-22T06:22:38;9.67;;;8.77;;
4508;SDS011;2267;48.816;9.230;2023-06-22T06:25:06;7.90;;;7.10;;
4508;SDS011;2267;48.816;9.230;2023-06-22T06:27:33;7.40;;;6.80;;
4508;SDS011;2267;48.816;9.230;2023-06-22T06:29:59;8.30;;;7.60;;
4508;SDS011;2267;48.816;9.230;2023-06-22T06:32:26;8.30;;;7.60;;
4508;SDS011;2267;48.816;9.230;2023-06-22T06:34:53;8.33;;;7.57;;
4508;SDS011;2267;48.816;9.230;2023-06-22T06:37:20;8.40;;;7.70;;
4508;SDS011;2267;48.816;9.230;2023-06-22T06:39:47;7.90;;;7.20;;
4508;SDS011;2267;48.816;9.230;2023-06-22T06:42:14;9.00;;;8.10;;
4508;SDS011;2267;48.816;9.230;2023-06-22T06:44:41;7.53;;;6.93;;
4508;SDS011;2267;48.816;9.230;2023-06-22T06:47:08;9.93;;;7.60;;
4508;SDS011;2267;48.816;9.230;2023-06-22T06:49:34;7.87;;;7.07;;
4508;SDS011;2267;48.816;9.230;2023-06-22T06:52:01;7.60;;;6.90;;
4508;SDS011;2267;48.816;9.230;2023-06-22T06:54:28;8.73;;;7.87;;
4508;SDS011;2267;48.816;9.230;2023-06-22T06:56:56;7.53;;;6.73;;
4508;SDS011;2267;48.816;9.230;2023-06-22T06:59:23;8.27;;;6.90;;
4508;SDS011;2267;48.816;9.230;2023-06-22T07:01:49;8.07;;;7.30;;
4508;SDS011;2267;48.816;9.230;2023-06-22T07:04:16;9.13;;;8.33;;
4508;SDS011;2267;48.816;9.230;2023-06-22T07:06:43;8.30;;;7.20;;
4508;SDS011;2267;48.816;9.230;2023-06-22T07:09:10;9.20;;;8.20;;
4508;SDS011;2267;48.816;9.230;2023-06-22T07:11:37;8.60;;;7.80;;
4508;SDS011;2267;48.816;9.230;2023-06-22T07:14:03;7.43;;;6.63;;
4508;SDS011;2267;48.816;9.230;2023-06-22T07:16:31;7.90;;;7.10;;
4508;SDS011;2267;48.816;9.230;2023-06-22T07:18:58;9.27;;;6.83;;
4508;SDS011;2267;48.816;9.230;2023-06-22T07:21:26;8.00;;;7.30;;
4508;SDS011;2267;48.816;9.230;2023-06-22T07:23:53;8.30;;;6.93;;
4508;SDS011;2267;48.816;9.230;2023-06-22T07:26:21;11.30;;;7.90;;
4508;SDS011;2267;48.816;9.230;2023-06-22T07:28:47;7.73;;;6.90;;
4508;SDS011;2267;48.816;9.230;2023-06-22T07:31:14;7.83;;;7.03;;
4508;SDS011;2267;48.816;9.230;2023-06-22T07:33:41;8.40;;;7.40;;
4508;SDS011;2267;48.816;9.230;2023-06-22T07:36:08;7.23;;;6.53;;
4508;SDS011;2267;48.816;9.230;2023-06-22T07:38:35;7.63;;;6.93;;
4508;SDS011;2267;48.816;9.230;2023-06-22T07:41:02;8.73;;;7.80;;
4508;SDS011;2267;48.816;9.230;2023-06-22T07:43:31;7.77;;;6.70;;
4508;SDS011;2267;48.816;9.230;2023-06-22T07:46:00;7.90;;;6.90;;
4508;SDS011;2267;48.816;9.230;2023-06-22T07:48:27;8.93;;;6.40;;
4508;SDS011;2267;48.816;9.230;2023-06-22T07:50:54;6.60;;;6.00;;
4508;SDS011;2267;48.816;9.230;2023-06-22T07:53:21;8.80;;;7.00;;
4508;SDS011;2267;48.816;9.230;2023-06-22T07:55:49;8.23;;;6.67;;
4508;SDS011;2267;48.816;9.230;2023-06-22T07:58:16;6.60;;;6.00;;
4508;SDS011;2267;48.816;9.230;2023-06-22T08:00:45;8.10;;;7.17;;
4508;SDS011;2267;48.816;9.230;2023-06-22T08:03:13;6.50;;;5.87;;
4508;SDS011;2267;48.816;9.230;2023-06-22T08:05:40;7.17;;;6.10;;
4508;SDS011;2267;48.816;9.230;2023-06-22T08:08:07;6.87;;;6.27;;
4508;SDS011;2267;48.816;9.230;2023-06-22T08:10:34;7.33;;;5.80;;
4508;SDS011;2267;48.816;9.230;2023-06-22T08:13:01;7.77;;;6.67;;
4508;SDS011;2267;48.816;9.230;2023-06-22T08:15:27;6.40;;;5.80;;
4508;SDS011;2267;48.816;9.230;2023-06-22T08:17:55;10.70;;;6.77;;
4508;SDS011;2267;48.816;9.230;2023-06-22T08:20:22;8.43;;;6.20;;
4508;SDS011;2267;48.816;9.230;2023-06-22T08:22:49;6.80;;;5.80;;
4508;SDS011;2267;48.816;9.230;2023-06-22T08:25:16;7.03;;;6.00;;
4508;SDS011;2267;48.816;9.230;2023-06-22T08:27:46;7.10;;;5.60;;
4508;SDS011;2267;48.816;9.230;2023-06-22T08:30:16;7.33;;;6.00;;
4508;SDS011;2267;48.816;9.230;2023-06-22T08:32:44;6.83;;;6.13;;
4508;SDS011;2267;48.816;9.230;2023-06-22T08:35:11;8.80;;;6.77;;
4508;SDS011;2267;48.816;9.230;2023-06-22T08:37:38;9.13;;;6.53;;
4508;SDS011;2267;48.816;9.230;2023-06-22T08:40:06;6.30;;;5.20;;
4508;SDS011;2267;48.816;9.230;2023-06-22T08:42:40;7.80;;;5.90;;
4508;SDS011;2267;48.816;9.230;2023-06-22T08:45:08;8.83;;;6.10;;
4508;SDS011;2267;48.816;9.230;2023-06-22T08:47:35;6.30;;;5.80;;
4508;SDS011;2267;48.816;9.230;2023-06-22T08:50:02;7.90;;;7.20;;
4508;SDS011;2267;48.816;9.230;2023-06-22T08:52:30;8.10;;;5.87;;
4508;SDS011;2267;48.816;9.230;2023-06-22T08:54:57;8.20;;;6.43;;
4508;SDS011;2267;48.816;9.230;2023-06-22T08:57:27;7.37;;;5.60;;
4508;SDS011;2267;48.816;9.230;2023-06-22T08:59:54;7.10;;;5.93;;
4508;SDS011;2267;48.816;9.230;2023-06-22T09:02:25;15.20;;;6.20;;
4508;SDS011;2267;48.816;9.230;2023-06-22T09:04:57;8.17;;;6.40;;
4508;SDS011;2267;48.816;9.230;2023-06-22T09:07:25;10.27;;;6.70;;
4508;SDS011;2267;48.816;9.230;2023-06-22T09:09:52;8.47;;;5.73;;
4508;SDS011;2267;48.816;9.230;2023-06-22T09:12:19;6.60;;;6.00;;
4508;SDS011;2267;48.816;9.230;2023-06-22T09:14:49;8.10;;;6.40;;
4508;SDS011;2267;48.816;9.230;2023-06-22T09:17:16;8.40;;;6.53;;
4508;SDS011;2267;48.816;9.230;2023-06-22T09:19:43;7.27;;;5.53;;
4508;SDS011;2267;48.816;9.230;2023-06-22T09:22:09;8.93;;;6.57;;
4508;SDS011;2267;48.816;9.230;2023-06-22T09:24:36;12.93;;;7.00;;
4508;SDS011;2267;48.816;9.230;2023-06-22T09:27:03;8.37;;;6.50;;
4508;SDS011;2267;48.816;9.230;2023-06-22T09:29:30;8.00;;;6.23;;
4508;SDS011;2267;48.816;9.230;2023-06-22T09:32:00;8.57;;;6.70;;
4508;SDS011;2267;48.816;9.230;2023-06-22T09:34:27;9.03;;;7.37;;
4508;SDS011;2267;48.816;9.230;2023-06-22T09:36:54;10.03;;;6.27;;
4508;SDS011;2267;48.816;9.230;2023-06-22T09:39:21;11.57;;;6.33;;
4508;SDS011;2267;48.816;9.230;2023-06-22T09:41:48;9.30;;;6.47;;
4508;SDS011;2267;48.816;9.230;2023-06-22T09:44:15;8.00;;;6.70;;
4508;SDS011;2267;48.816;9.230;2023-06-22T09:46:42;7.97;;;6.27;;
4508;SDS011;2267;48.816;9.230;2023-06-22T09:49:09;8.67;;;7.23;;
4508;SDS011;2267;48.816;9.230;2023-06-22T09:51:36;11.40;;;6.50;;
4508;SDS011;2267;48.816;9.230;2023-06-22T09:54:03;10.13;;;7.07;;
4508;SDS011;2267;48.816;9.230;2023-06-22T09:56:30;12.37;;;7.20;;
4508;SDS011;2267;48.816;9.230;2023-06-22T09:58:57;11.17;;;7.20;;
4508;SDS011;2267;48.816;9.230;2023-06-22T10:01:43;9.53;;;6.83;;
4508;SDS011;2267;48.816;9.230;2023-06-22T10:04:10;8.40;;;6.67;;
4508;SDS011;2267;48.816;9.230;2023-06-22T10:06:37;9.10;;;7.10;;
4508;SDS011;2267;48.816;9.230;2023-06-22T10:09:07;13.93;;;6.63;;
4508;SDS011;2267;48.816;9.230;2023-06-22T10:11:34;11.10;;;7.00;;
4508;SDS011;2267;48.816;9.230;2023-06-22T10:14:01;7.07;;;6.37;;
4508;SDS011;2267;48.816;9.230;2023-06-22T10:16:30;8.50;;;6.73;;
4508;SDS011;2267;48.816;9.230;2023-06-22T10:18:57;8.40;;;7.13;;
4508;SDS011;2267;48.816;9.230;2023-06-22T10:21:24;8.97;;;6.37;;
4508;SDS011;2267;48.816;9.230;2023-06-22T10:23:53;10.73;;;7.10;;
4508;SDS011;2267;48.816;9.230;2023-06-22T10:26:20;6.73;;;6.13;;
4508;SDS011;2267;48.816;9.230;2023-06-22T10:28:47;7.90;;;7.10;;
4508;SDS011;2267;48.816;9.230;2023-06-22T10:31:14;9.00;;;7.00;;
4508;SDS011;2267;48.816;9.230;2023-06-22T10:33:42;11.40;;;6.87;;
4508;SDS011;2267;48.816;9.230;2023-06-22T10:36:10;8.60;;;6.93;;
4508;SDS011;2267;48.816;9.230;2023-06-22T10:38:37;8.17;;;7.20;;
4508;SDS011;2267;48.816;9.230;2023-06-22T10:41:04;8.60;;;6.40;;
4508;SDS011;2267;48.816;9.230;2023-06-22T10:43:31;7.60;;;6.83;;
4508;SDS011;2267;48.816;9.230;2023-06-22T10:45:58;7.13;;;6.43;;
4508;SDS011;2267;48.816;9.230;2023-06-22T10:48:25;8.20;;;7.13;;
4508;SDS011;2267;48.816;9.230;2023-06-22T10:50:52;10.83;;;6.90;;
4508;SDS011;2267;48.816;9.230;2023-06-22T10:53:19;13.70;;;7.97;;
4508;SDS011;2267;48.816;9.230;2023-06-22T10:55:50;12.60;;;7.40;;
4508;SDS011;2267;48.816;9.230;2023-06-22T10:58:23;7.83;;;6.27;;
4508;SDS011;2267;48.816;9.230;2023-06-22T11:00:49;10.57;;;8.50;;
4508;SDS011;2267;48.816;9.230;2023-06-22T11:03:16;9.50;;;7.90;;
4508;SDS011;2267;48.816;9.230;2023-06-22T11:05:43;7.80;;;6.40;;
4508;SDS011;2267;48.816;9.230;2023-06-22T11:08:10;7.90;;;6.90;;
4508;SDS011;2267;48.816;9.230;2023-06-22T11:10:37;8.57;;;6.73;;
4508;SDS011;2267;48.816;9.230;2023-06-22T11:13:04;9.80;;;7.40;;
4508;SDS011;2267;48.816;9.230;2023-06-22T11:15:32;10.70;;;7.10;;
4508;SDS011;2267;48.816;9.230;2023-06-22T11:17:58;8.40;;;6.13;;
4508;SDS011;2267;48.816;9.230;2023-06-22T11:20:25;7.23;;;6.53;;
4508;SDS011;2267;48.816;9.230;2023-06-22T11:22:52;8.77;;;6.77;;
4508;SDS011;2267;48.816;9.230;2023-06-22T11:25:19;8.87;;;6.90;;
4508;SDS011;2267;48.816;9.230;2023-06-22T11:27:46;13.80;;;7.20;;
4508;SDS011;2267;48.816;9.230;2023-06-22T11:30:12;6.40;;;5.33;;
4508;SDS011;2267;48.816;9.230;2023-06-22T11:32:39;9.70;;;7.03;;
4508;SDS011;2267;48.816;9.230;2023-06-22T11:35:07;8.37;;;6.20;;
4508;SDS011;2267;48.816;9.230;2023-06-22T11:37:34;13.33;;;7.20;;
4508;SDS011;2267;48.816;9.230;2023-06-22T11:40:00;7.63;;;6.27;;
4508;SDS011;2267;48.816;9.230;2023-06-22T11:42:32;9.00;;;6.57;;
4508;SDS011;2267;48.816;9.230;2023-06-22T11:45:00;9.80;;;6.30;;
4508;SDS011;2267;48.816;9.230;2023-06-22T11:47:28;6.90;;;5.90;;
4508;SDS011;2267;48.816;9.230;2023-06-22T11:49:55;8.40;;;6.10;;
4508;SDS011;2267;48.816;9.230;2023-06-22T11:52:22;10.77;;;7.83;;
4508;SDS011;2267;48.816;9.230;2023-06-22T11:54:49;12.70;;;7.57;;
4508;SDS011;2267;48.816;9.230;2023-06-22T11:57:16;7.90;;;7.10;;
4508;SDS011;2267;48.816;9.230;2023-06-22T11:59:42;11.33;;;6.67;;
4508;SDS011;2267;48.816;9.230;2023-06-22T12:02:09;9.07;;;7.50;;
4508;SDS011;2267;48.816;9.230;2023-06-22T12:04:36;11.13;;;7.57;;
4508;SDS011;2267;48.816;9.230;2023-06-22T12:07:04;7.30;;;6.27;;
4508;SDS011;2267;48.816;9.230;2023-06-22T12:09:30;11.10;;;7.77;;
4508;SDS011;2267;48.816;9.230;2023-06-22T12:11:57;10.03;;;7.30;;
4508;SDS011;2267;48.816;9.230;2023-06-22T12:14:24;11.07;;;7.90;;
4508;SDS011;2267;48.816;9.230;2023-06-22T12:16:51;13.03;;;8.13;;
4508;SDS011;2267;48.816;9.230;2023-06-22T12:19:17;10.27;;;7.43;;
4508;SDS011;2267;48.816;9.230;2023-06-22T12:21:44;11.10;;;8.40;;
4508;SDS011;2267;48.816;9.230;2023-06-22T12:24:12;12.50;;;7.80;;
4508;SDS011;2267;48.816;9.230;2023-06-22T12:26:39;17.20;;;8.40;;
4508;SDS011;2267;48.816;9.230;2023-06-22T12:29:06;9.23;;;7.20;;
4508;SDS011;2267;48.816;9.230;2023-06-22T12:31:32;9.40;;;7.97;;
4508;SDS011;2267;48.816;9.230;2023-06-22T12:33:59;11.97;;;8.63;;
4508;SDS011;2267;48.816;9.230;2023-06-22T12:36:26;9.77;;;7.23;;
4508;SDS011;2267;48.816;9.230;2023-06-22T12:38:53;11.73;;;7.57;;
4508;SDS011;2267;48.816;9.230;2023-06-22T12:41:21;10.37;;;7.53;;
4508;SDS011;2267;48.816;9.230;2023-06-22T12:43:48;10.67;;;7.93;;
4508;SDS011;2267;48.816;9.230;2023-06-22T12:46:15;15.07;;;8.27;;
4508;SDS011;2267;48.816;9.230;2023-06-22T12:48:42;12.00;;;8.10;;
4508;SDS011;2267;48.816;9.230;2023-06-22T12:51:09;11.63;;;9.30;;
4508;SDS011;2267;48.816;9.230;2023-06-22T12:53:36;11.27;;;6.70;;
4508;SDS011;2267;48.816;9.230;2023-06-22T12:56:02;11.00;;;7.50;;
4508;SDS011;2267;48.816;9.230;2023-06-22T12:58:30;12.90;;;7.30;;
4508;SDS011;2267;48.816;9.230;2023-06-22T13:00:56;14.77;;;7.60;;
4508;SDS011;2267;48.816;9.230;2023-06-22T13:03:23;10.30;;;6.53;;
4508;SDS011;2267;48.816;9.230;2023-06-22T13:05:52;14.43;;;6.53;;
4508;SDS011;2267;48.816;9.230;2023-06-22T13:08:19;11.70;;;6.90;;
4508;SDS011;2267;48.816;9.230;2023-06-22T13:10:47;11.53;;;7.80;;
4508;SDS011;2267;48.816;9.230;2023-06-22T13:13:14;10.50;;;6.90;;
4508;SDS011;2267;48.816;9.230;2023-06-22T13:15:40;10.97;;;6.87;;
4508;SDS011;2267;48.816;9.230;2023-06-22T13:18:07;11.00;;;7.50;;
4508;SDS011;2267;48.816;9.230;2023-06-22T13:20:34;10.57;;;7.43;;
4508;SDS011;2267;48.816;9.230;2023-06-22T13:23:01;9.67;;;7.30;;
4508;SDS011;2267;48.816;9.230;2023-06-22T13:25:31;9.60;;;6.90;;
4508;SDS011;2267;48.816;9.230;2023-06-22T13:27:58;10.47;;;8.00;;
4508;SDS011;2267;48.816;9.230;2023-06-22T13:30:25;8.67;;;7.07;;
4508;SDS011;2267;48.816;9.230;2023-06-22T13:32:52;11.13;;;6.83;;
4508;SDS011;2267;48.816;9.230;2023-06-22T13:35:18;12.07;;;7.47;;
4508;SDS011;2267;48.816;9.230;2023-06-22T13:37:45;9.17;;;6.40;;
4508;SDS011;2267;48.816;9.230;2023-06-22T13:40:12;9.20;;;6.73;;
4508;SDS011;2267;48.816;9.230;2023-06-22T13:42:39;8.33;;;6.10;;
4508;SDS011;2267;48.816;9.230;2023-06-22T13:45:06;7.57;;;6.50;;
4508;SDS011;2267;48.816;9.230;2023-06-22T13:47:34;9.07;;;6.47;;
4508;SDS011;2267;48.816;9.230;2023-06-22T13:50:00;10.77;;;7.67;;
4508;SDS011;2267;48.816;9.230;2023-06-22T13:52:27;11.07;;;6.47;;
4508;SDS011;2267;48.816;9.230;2023-06-22T13:54:54;16.30;;;7.10;;
4508;SDS011;2267;48.816;9.230;2023-06-22T13:57:21;10.73;;;7.10;;
4508;SDS011;2267;48.816;9.230;2023-06-22T13:59:48;11.00;;;7.50;;
4508;SDS011;2267;48.816;9.230;2023-06-22T14:02:15;9.67;;;6.50;;
4508;SDS011;2267;48.816;9.230;2023-06-22T14:04:42;8.90;;;7.60;;
4508;SDS011;2267;48.816;9.230;2023-06-22T14:07:09;15.00;;;7.63;;
4508;SDS011;2267;48.816;9.230;2023-06-22T14:09:36;12.50;;;6.60;;
4508;SDS011;2267;48.816;9.230;2023-06-22T14:12:03;10.27;;;6.80;;
4508;SDS011;2267;48.816;9.230;2023-06-22T14:14:33;15.37;;;7.87;;
4508;SDS011;2267;48.816;9.230;2023-06-22T14:17:00;10.43;;;7.40;;
4508;SDS011;2267;48.816;9.230;2023-06-22T14:19:27;9.17;;;7.40;;
4508;SDS011;2267;48.816;9.230;2023-06-22T14:21:54;13.43;;;7.13;;
4508;SDS011;2267;48.816;9.230;2023-06-22T14:24:21;14.70;;;7.07;;
4508;SDS011;2267;48.816;9.230;2023-06-22T14:26:50;12.83;;;7.20;;
4508;SDS011;2267;48.816;9.230;2023-06-22T14:29:17;11.17;;;5.83;;
4508;SDS011;2267;48.816;9.230;2023-06-22T14:31:45;13.53;;;7.00;;
4508;SDS011;2267;48.816;9.230;2023-06-22T14:34:13;10.07;;;7.03;;
4508;SDS011;2267;48.816;9.230;2023-06-22T14:36:41;9.93;;;6.33;;
4508;SDS011;2267;48.816;9.230;2023-06-22T14:39:09;9.60;;;5.20;;
4508;SDS011;2267;48.816;9.230;2023-06-22T14:41:35;14.50;;;6.80;;
4508;SDS011;2267;48.816;9.230;2023-06-22T14:44:02;10.77;;;7.50;;
4508;SDS011;2267;48.816;9.230;2023-06-22T14:46:29;9.57;;;5.87;;
4508;SDS011;2267;48.816;9.230;2023-06-22T14:48:56;10.93;;;6.20;;
4508;SDS011;2267;48.816;9.230;2023-06-22T14:51:23;13.17;;;7.20;;
4508;SDS011;2267;48.816;9.230;2023-06-22T14:53:50;12.77;;;6.60;;
4508;SDS011;2267;48.816;9.230;2023-06-22T14:56:17;10.80;;;6.93;;
4508;SDS011;2267;48.816;9.230;2023-06-22T14:58:44;10.43;;;6.00;;
4508;SDS011;2267;48.816;9.230;2023-06-22T15:01:12;10.23;;;6.30;;
4508;SDS011;2267;48.816;9.230;2023-06-22T15:03:40;9.43;;;6.00;;
4508;SDS011;2267;48.816;9.230;2023-06-22T15:06:07;9.90;;;5.17;;
4508;SDS011;2267;48.816;9.230;2023-06-22T15:08:36;6.70;;;5.60;;
4508;SDS011;2267;48.816;9.230;2023-06-22T15:11:10;8.90;;;5.07;;
4508;SDS011;2267;48.816;9.230;2023-06-22T15:13:40;11.23;;;4.70;;
4508;SDS011;2267;48.816;9.230;2023-06-22T15:16:08;10.83;;;4.87;;
4508;SDS011;2267;48.816;9.230;2023-06-22T15:18:35;11.07;;;4.30;;
4508;SDS011;2267;48.816;9.230;2023-06-22T15:21:03;13.40;;;4.20;;